Pagina principale
METAR-TAF:

METAR-TAF

Aeroporti :

Cerklje ob Krki, Slovenia

latitudine: 45-53-59N, longitudine: 15-30-55E, altezza: 157 m

Osservazione

Il bollettino è stato emesso 30 minuti fa, alle 15:30 UTC
Vento 1 kt da direzioni variabili
Temperature 4°C
Umidità 93%
Pressione 1013 hPa
Visibilità 10 km o più

METAR: LJCE 191530Z AUTO VRB01KT 9999 FEW014/// 04/03 Q1013

Ora: 17:00 (16:00 UTC)

Previsione

Il bollettino è stato emesso 2 ore e 0 minuti fa, alle 14:00 UTC
Previsione valida dal 19 alle 15 UTC al 19 alle 24 UTC
Vento 2 kt da direzioni variabili
Visibilità: 6000 m
Nuvoloso ad un'altezza di 500 ft
Evoluzione graduale
dal 19 alle 19 UTC al 19 alle 22 UTC
Nubi sparse ad un'altezza di 500 ft

TAF: LJCE 191400Z 1915/1924 VRB02KT 6000 BKN005 BECMG 1919/1922 SCT005

Osservazioni e previsioni meteorologiche di più di 4000 aeroporti (messaggi METAR e TAF).

Le stazioni disponibili sono rappresentate dai dischi gialli e rossi sulla carta.

Puntare il mouse per vedere il nome della stazione.

Clicca sopra per visualizzare le osservazioni e previsioni meteorologiche.

Per cambiare la mappa : fare clic sui pulsanti verdi con una croce nera per ingrandire, il pulsante verde con un trattino per diminuire, o sulla freccia verde per le mappe adiacenti.


METAR-TAF: